createdAt,value
2018-02-05T00:01:21.616Z,1.80
2018-02-05T00:03:49.522Z,1.80
2018-02-05T00:06:17.077Z,1.80
2018-02-05T00:08:44.637Z,1.80
2018-02-05T00:11:12.493Z,1.90
2018-02-05T00:13:40.058Z,1.90
2018-02-05T00:16:07.687Z,1.80
2018-02-05T00:18:35.577Z,1.80
2018-02-05T00:21:03.338Z,1.90
2018-02-05T00:23:31.600Z,1.80
2018-02-05T00:25:59.485Z,1.80
2018-02-05T00:28:27.049Z,1.80
2018-02-05T00:30:54.617Z,1.70
2018-02-05T00:33:23.485Z,1.70
2018-02-05T00:35:51.047Z,1.70
2018-02-05T00:38:18.619Z,1.70
2018-02-05T00:40:46.569Z,1.70
2018-02-05T00:43:14.124Z,1.70
2018-02-05T00:45:41.707Z,1.70
2018-02-05T00:48:09.557Z,1.70
2018-02-05T00:50:37.110Z,1.70
2018-02-05T00:53:04.695Z,1.70
2018-02-05T00:55:33.291Z,1.80
2018-02-05T00:58:01.608Z,1.80
2018-02-05T01:00:29.174Z,1.80
2018-02-05T01:02:56.945Z,1.80
2018-02-05T01:05:24.496Z,1.70
2018-02-05T01:07:52.036Z,1.80
2018-02-05T01:10:19.939Z,1.80
2018-02-05T01:12:47.515Z,1.80
2018-02-05T01:15:15.082Z,1.80
2018-02-05T01:17:43.454Z,1.80
2018-02-05T01:20:12.584Z,1.70
2018-02-05T01:22:40.150Z,1.70
2018-02-05T01:25:07.712Z,1.80
2018-02-05T01:27:35.683Z,1.80
2018-02-05T01:30:03.233Z,1.90
2018-02-05T01:32:30.808Z,1.80
2018-02-05T01:34:58.420Z,1.80
2018-02-05T01:37:26.749Z,1.80
2018-02-05T01:39:54.341Z,1.80
2018-02-05T01:42:22.199Z,1.90
2018-02-05T01:44:49.754Z,1.80
2018-02-05T01:47:17.309Z,1.80
2018-02-05T01:49:45.188Z,1.70
2018-02-05T01:52:14.253Z,1.70
2018-02-05T01:54:41.810Z,1.70
2018-02-05T01:57:09.788Z,1.80
2018-02-05T01:59:37.348Z,1.80
2018-02-05T02:02:04.906Z,1.80
2018-02-05T02:04:32.485Z,1.70
2018-02-05T02:07:00.050Z,1.70
2018-02-05T02:09:28.536Z,1.60
2018-02-05T02:11:56.474Z,1.60
2018-02-05T02:14:24.021Z,1.60
2018-02-05T02:16:51.670Z,1.50
2018-02-05T02:19:19.344Z,1.60
2018-02-05T02:21:46.909Z,1.80
2018-02-05T02:24:14.475Z,1.80
2018-02-05T02:26:42.350Z,1.90
2018-02-05T02:29:10.389Z,1.80
2018-02-05T02:31:37.951Z,1.70
2018-02-05T02:34:05.575Z,1.60
2018-02-05T02:36:33.937Z,1.70
2018-02-05T02:39:02.261Z,1.70
2018-02-05T02:41:29.869Z,1.70
2018-02-05T02:43:58.942Z,1.70
2018-02-05T02:46:26.496Z,1.70
2018-02-05T02:48:54.163Z,1.70
2018-02-05T02:51:21.725Z,1.70
2018-02-05T02:53:50.048Z,1.70
2018-02-05T02:56:17.946Z,1.70
2018-02-05T02:58:45.505Z,1.70
2018-02-05T03:01:13.061Z,1.60
2018-02-05T03:03:41.048Z,1.70
2018-02-05T03:06:08.609Z,1.60
2018-02-05T03:08:36.196Z,1.60
2018-02-05T03:11:04.562Z,1.60
2018-02-05T03:13:32.158Z,1.60
2018-02-05T03:15:59.731Z,1.80
2018-02-05T03:18:27.608Z,1.90
2018-02-05T03:20:55.166Z,1.90
2018-02-05T03:23:22.737Z,1.90
2018-02-05T03:25:50.619Z,1.90
2018-02-05T03:28:18.172Z,1.90
2018-02-05T03:30:45.744Z,1.90
2018-02-05T03:33:13.339Z,1.90
2018-02-05T03:35:40.904Z,1.90
2018-02-05T03:38:08.468Z,1.90
2018-02-05T03:40:36.374Z,1.80
2018-02-05T03:43:03.926Z,1.80
2018-02-05T03:45:31.553Z,1.70
2018-02-05T03:47:59.405Z,1.70
2018-02-05T03:50:27.732Z,1.70
2018-02-05T03:52:55.283Z,1.80
2018-02-05T03:55:23.319Z,1.80
2018-02-05T03:57:50.883Z,1.80
2018-02-05T04:00:18.464Z,1.80
2018-02-05T04:02:46.018Z,1.80
2018-02-05T04:05:13.585Z,1.80
2018-02-05T04:07:41.563Z,1.80
2018-02-05T04:10:09.186Z,1.80
2018-02-05T04:12:36.736Z,1.80
2018-02-05T04:15:04.344Z,1.80
2018-02-05T04:17:31.908Z,1.80
2018-02-05T04:20:00.988Z,1.80
2018-02-05T04:22:29.155Z,1.80
2018-02-05T04:24:56.717Z,1.80
2018-02-05T04:27:24.270Z,1.80
2018-02-05T04:29:51.863Z,1.70
2018-02-05T04:32:20.190Z,1.70
2018-02-05T04:34:47.760Z,1.70
2018-02-05T04:37:15.637Z,1.60
2018-02-05T04:39:43.203Z,1.70
2018-02-05T04:42:10.779Z,1.70
2018-02-05T04:44:39.644Z,1.60
2018-02-05T04:47:07.196Z,1.60
2018-02-05T04:49:34.772Z,1.60
2018-02-05T04:52:04.162Z,1.50
2018-02-05T04:54:31.733Z,1.50
2018-02-05T04:56:59.307Z,1.50
2018-02-05T04:59:27.930Z,1.70
2018-02-05T05:01:55.483Z,1.60
2018-02-05T05:04:23.179Z,1.70
2018-02-05T05:06:50.752Z,1.80
2018-02-05T05:09:18.332Z,1.80
2018-02-05T05:11:46.694Z,1.70
2018-02-05T05:14:14.262Z,1.60
2018-02-05T05:16:41.832Z,1.60
2018-02-05T05:19:10.476Z,1.70
2018-02-05T05:21:38.275Z,1.60
2018-02-05T05:24:06.607Z,1.70
2018-02-05T05:26:34.592Z,1.60
2018-02-05T05:29:02.156Z,1.60
2018-02-05T05:31:29.700Z,1.50
2018-02-05T05:33:57.583Z,1.50
2018-02-05T05:36:25.136Z,1.50
2018-02-05T05:38:52.692Z,1.40
2018-02-05T05:41:20.563Z,1.40
2018-02-05T05:43:48.248Z,1.50
2018-02-05T05:46:16.588Z,1.40
2018-02-05T05:48:44.455Z,1.40
2018-02-05T05:51:12.025Z,1.50
2018-02-05T05:53:39.607Z,1.50
2018-02-05T05:56:08.330Z,1.50
2018-02-05T05:58:35.894Z,1.40
2018-02-05T06:01:03.454Z,1.40
2018-02-05T06:03:31.328Z,1.40
2018-02-05T06:05:58.950Z,1.40
2018-02-05T06:08:27.281Z,1.40
2018-02-05T06:10:54.928Z,1.40
2018-02-05T06:13:22.490Z,1.40
2018-02-05T06:15:50.055Z,1.40
2018-02-05T06:18:18.339Z,1.40
2018-02-05T06:20:45.887Z,1.40
2018-02-05T06:23:13.454Z,1.30
2018-02-05T06:25:41.083Z,1.30
2018-02-05T06:28:08.669Z,1.30
2018-02-05T06:30:36.265Z,1.30
2018-02-05T06:33:04.821Z,1.20
2018-02-05T06:35:32.344Z,1.10
2018-02-05T06:37:59.888Z,1.20
2018-02-05T06:40:27.767Z,1.20
2018-02-05T06:42:55.397Z,1.20
2018-02-05T06:45:23.807Z,1.10
2018-02-05T06:47:51.889Z,1.00
2018-02-05T06:50:31.242Z,1.00
2018-02-05T06:53:11.004Z,1.00
2018-02-05T06:55:47.156Z,1.00
2018-02-05T06:58:15.008Z,1.00
2018-02-05T07:00:42.587Z,1.00
2018-02-05T07:03:10.148Z,1.00
2018-02-05T07:05:37.724Z,1.00
2018-02-05T07:08:06.041Z,1.10
2018-02-05T07:10:33.589Z,1.00
2018-02-05T07:13:01.224Z,1.00
2018-02-05T07:15:29.540Z,1.20
2018-02-05T07:17:57.104Z,1.20
2018-02-05T07:20:25.186Z,1.20
2018-02-05T07:22:52.749Z,1.20
2018-02-05T07:25:21.446Z,1.20
2018-02-05T07:27:49.396Z,1.20
2018-02-05T07:30:16.946Z,1.10
2018-02-05T07:32:44.507Z,1.10
2018-02-05T07:35:12.112Z,0.90
2018-02-05T07:37:40.447Z,0.80
2018-02-05T07:40:08.000Z,0.70
2018-02-05T07:42:35.870Z,0.80
2018-02-05T07:45:03.421Z,0.90
2018-02-05T07:47:30.973Z,0.80
2018-02-05T07:49:58.843Z,0.70
2018-02-05T07:52:26.406Z,0.70
2018-02-05T07:54:53.998Z,0.60
2018-02-05T07:57:22.652Z,0.50
2018-02-05T07:59:50.221Z,0.50
2018-02-05T08:02:17.772Z,0.60
2018-02-05T08:04:45.865Z,0.70
2018-02-05T08:07:13.688Z,0.80
2018-02-05T08:09:43.642Z,0.90
2018-02-05T08:12:11.537Z,1.10
2018-02-05T08:14:39.387Z,1.20
2018-02-05T08:17:07.719Z,1.30
2018-02-05T08:19:35.610Z,1.30
2018-02-05T08:22:03.283Z,1.40
2018-02-05T08:24:31.600Z,1.40
2018-02-05T08:26:59.464Z,1.40
2018-02-05T08:29:27.049Z,1.60
2018-02-05T08:31:54.616Z,1.60
2018-02-05T08:34:22.512Z,1.60
2018-02-05T08:36:50.859Z,1.70
2018-02-05T08:39:18.426Z,1.70
2018-02-05T08:41:46.283Z,1.70
2018-02-05T08:44:13.848Z,1.80
2018-02-05T08:46:41.405Z,1.80
2018-02-05T08:49:09.254Z,1.80
2018-02-05T08:51:36.905Z,1.80
2018-02-05T08:54:04.461Z,1.90
2018-02-05T08:56:32.362Z,2.00
2018-02-05T08:58:59.928Z,2.10
2018-02-05T09:01:27.488Z,2.10
2018-02-05T09:03:55.092Z,2.20
2018-02-05T09:06:22.657Z,2.20
2018-02-05T09:08:50.254Z,2.10
2018-02-05T09:11:18.091Z,2.10
2018-02-05T09:13:45.660Z,2.00
2018-02-05T09:16:13.225Z,1.90
2018-02-05T09:18:41.075Z,1.90
2018-02-05T09:21:08.645Z,1.90
2018-02-05T09:23:36.211Z,1.90
2018-02-05T09:26:04.186Z,1.90
2018-02-05T09:28:31.816Z,1.90
2018-02-05T09:30:59.427Z,2.10
2018-02-05T09:33:28.077Z,2.20
2018-02-05T09:35:55.658Z,2.10
2018-02-05T09:38:23.227Z,2.10
2018-02-05T09:40:51.606Z,2.40
2018-02-05T09:43:19.297Z,2.40
2018-02-05T09:45:47.617Z,2.60
2018-02-05T09:48:15.452Z,2.50
2018-02-05T09:50:43.010Z,2.60
2018-02-05T09:53:10.714Z,2.70
2018-02-05T09:55:38.659Z,2.70
2018-02-05T09:58:08.586Z,2.80
2018-02-05T10:00:36.142Z,2.80
2018-02-05T10:03:03.986Z,2.70
2018-02-05T10:05:31.551Z,2.60
2018-02-05T10:07:59.129Z,2.50
2018-02-05T10:10:26.731Z,2.60
2018-02-05T10:12:55.060Z,2.60
2018-02-05T10:15:22.671Z,2.60
2018-02-05T10:17:51.000Z,2.60
2018-02-05T10:20:18.978Z,2.60
2018-02-05T10:22:46.600Z,2.60
2018-02-05T10:25:14.154Z,2.70
2018-02-05T10:27:41.793Z,2.70
2018-02-05T10:30:10.121Z,2.30
2018-02-05T10:32:37.719Z,2.30
2018-02-05T10:35:06.050Z,2.40
2018-02-05T10:37:34.196Z,2.30
2018-02-05T10:40:01.912Z,2.50
2018-02-05T10:42:30.495Z,3.10
2018-02-05T10:44:58.817Z,3.40
2018-02-05T10:47:26.397Z,3.30
2018-02-05T10:49:53.957Z,3.70
2018-02-05T10:52:21.932Z,3.90
2018-02-05T10:54:49.485Z,3.70
2018-02-05T10:57:17.031Z,3.60
2018-02-05T10:59:44.631Z,3.40
2018-02-05T11:02:12.974Z,3.20
2018-02-05T11:04:40.866Z,3.20
2018-02-05T11:07:08.501Z,3.20
2018-02-05T11:09:36.154Z,3.20
2018-02-05T11:12:03.743Z,3.10
2018-02-05T11:14:31.312Z,3.20
2018-02-05T11:16:59.169Z,3.10
2018-02-05T11:19:26.766Z,3.00
2018-02-05T11:21:55.080Z,3.10
2018-02-05T11:24:22.657Z,3.00
2018-02-05T11:26:50.217Z,2.90
2018-02-05T11:29:17.830Z,3.00
2018-02-05T11:31:45.390Z,3.00
2018-02-05T11:34:13.734Z,2.90
2018-02-05T11:36:41.321Z,2.90
2018-02-05T11:39:09.654Z,3.00
2018-02-05T11:41:37.617Z,2.90
2018-02-05T11:44:05.180Z,3.10
2018-02-05T11:46:32.761Z,3.20
2018-02-05T11:49:00.357Z,3.10
2018-02-05T11:51:27.934Z,3.10
2018-02-05T11:53:55.770Z,3.00
2018-02-05T11:56:23.332Z,3.10
2018-02-05T11:58:50.924Z,2.90
2018-02-05T12:01:18.558Z,3.00
2018-02-05T12:03:46.110Z,3.00
2018-02-05T12:06:13.950Z,3.00
2018-02-05T12:08:41.513Z,3.10
2018-02-05T12:11:09.840Z,3.10
2018-02-05T12:13:37.415Z,3.10
2018-02-05T12:16:04.987Z,3.20
2018-02-05T12:18:33.373Z,3.00
2018-02-05T12:21:02.433Z,2.90
2018-02-05T12:23:30.207Z,2.90
2018-02-05T12:25:57.953Z,2.90
2018-02-05T12:28:25.803Z,2.80
2018-02-05T12:30:53.695Z,2.90
2018-02-05T12:33:21.267Z,3.00
2018-02-05T12:35:48.833Z,3.00
2018-02-05T12:38:16.404Z,3.10
2018-02-05T12:40:43.953Z,3.20
2018-02-05T12:43:13.344Z,4.30
2018-02-05T12:45:40.923Z,4.30
2018-02-05T12:48:09.252Z,5.80
2018-02-05T12:50:36.839Z,5.80
2018-02-05T12:53:04.399Z,5.50
2018-02-05T12:55:34.562Z,5.20
2018-02-05T12:58:02.191Z,4.60
2018-02-05T13:00:33.252Z,4.20
2018-02-05T13:03:06.073Z,3.60
2018-02-05T13:05:33.722Z,3.60
2018-02-05T13:08:01.565Z,3.40
2018-02-05T13:10:29.932Z,3.80
2018-02-05T13:12:58.321Z,3.80
2018-02-05T13:15:25.961Z,3.80
2018-02-05T13:17:55.018Z,3.60
2018-02-05T13:20:22.742Z,3.60
2018-02-05T13:22:51.077Z,3.50
2018-02-05T13:25:19.029Z,3.40
2018-02-05T13:27:46.733Z,3.60
2018-02-05T13:30:15.065Z,3.80
2018-02-05T13:32:42.632Z,3.70
2018-02-05T13:35:10.209Z,3.70
2018-02-05T13:37:38.649Z,3.70
2018-02-05T13:40:06.541Z,3.70
2018-02-05T13:42:34.111Z,3.90
2018-02-05T13:45:03.174Z,4.40
2018-02-05T13:47:30.788Z,4.40
2018-02-05T13:49:59.866Z,4.50
2018-02-05T13:52:28.994Z,4.30
2018-02-05T13:54:56.539Z,4.30
2018-02-05T13:57:24.896Z,4.10
2018-02-05T13:59:53.258Z,3.70
2018-02-05T14:02:20.818Z,3.70
2018-02-05T14:04:48.412Z,3.50
2018-02-05T14:07:16.730Z,3.10
2018-02-05T14:09:44.295Z,3.10
2018-02-05T14:12:11.886Z,3.00
2018-02-05T14:14:40.187Z,2.90
2018-02-05T14:17:08.917Z,2.80
2018-02-05T14:19:36.476Z,2.80
2018-02-05T14:22:04.031Z,2.80
2018-02-05T14:24:31.674Z,2.90
2018-02-05T14:26:59.238Z,2.80
2018-02-05T14:29:26.858Z,2.70
2018-02-05T14:31:55.196Z,2.70
2018-02-05T14:34:22.761Z,2.70
2018-02-05T14:36:50.354Z,2.70
2018-02-05T14:39:18.698Z,2.60
2018-02-05T14:41:46.305Z,2.60
2018-02-05T14:44:13.874Z,2.60
2018-02-05T14:46:41.441Z,2.60
2018-02-05T14:49:09.031Z,2.60
2018-02-05T14:51:36.572Z,2.60
2018-02-05T14:54:04.571Z,2.60
2018-02-05T14:56:32.133Z,2.60
2018-02-05T14:59:00.479Z,2.60
2018-02-05T15:01:28.084Z,2.50
2018-02-05T15:03:56.473Z,2.60
2018-02-05T15:06:25.084Z,2.60
2018-02-05T15:08:52.745Z,2.50
2018-02-05T15:11:20.293Z,2.50
2018-02-05T15:13:47.888Z,2.50
2018-02-05T15:16:15.597Z,2.30
2018-02-05T15:18:44.000Z,2.30
2018-02-05T15:21:11.558Z,2.30
2018-02-05T15:23:39.124Z,2.20
2018-02-05T15:26:06.698Z,2.20
2018-02-05T15:28:34.305Z,2.20
2018-02-05T15:31:03.879Z,2.10
2018-02-05T15:33:31.433Z,2.00
2018-02-05T15:35:58.985Z,2.10
2018-02-05T15:38:26.752Z,2.20
2018-02-05T15:40:54.307Z,2.10
2018-02-05T15:43:22.167Z,2.10
2018-02-05T15:45:49.730Z,2.00
2018-02-05T15:48:17.272Z,2.00
2018-02-05T15:50:44.875Z,2.00
2018-02-05T15:53:12.436Z,2.00
2018-02-05T15:55:40.358Z,2.00
2018-02-05T15:58:07.928Z,2.00
2018-02-05T16:00:35.790Z,1.90
2018-02-05T16:03:03.394Z,1.80
2018-02-05T16:05:31.738Z,1.80
2018-02-05T16:07:59.351Z,1.80
2018-02-05T16:10:26.918Z,1.80
2018-02-05T16:12:54.474Z,1.70
2018-02-05T16:15:22.065Z,1.70
2018-02-05T16:17:49.631Z,1.60
2018-02-05T16:20:17.229Z,1.60
2018-02-05T16:22:45.547Z,1.60
2018-02-05T16:25:13.112Z,1.60
2018-02-05T16:27:40.711Z,1.60
2018-02-05T16:30:08.256Z,1.50
2018-02-05T16:32:37.450Z,1.50
2018-02-05T16:35:05.020Z,1.50
2018-02-05T16:37:32.585Z,1.30
2018-02-05T16:40:00.210Z,1.30
2018-02-05T16:42:27.795Z,1.20
2018-02-05T16:44:56.255Z,1.30
2018-02-05T16:47:23.883Z,1.10
2018-02-05T16:49:51.439Z,1.10
2018-02-05T16:52:19.006Z,0.90
2018-02-05T16:54:46.578Z,0.80
2018-02-05T16:57:14.562Z,0.70
2018-02-05T16:59:42.125Z,0.60
2018-02-05T17:02:09.673Z,0.50
2018-02-05T17:04:37.295Z,0.40
2018-02-05T17:07:04.872Z,0.30
2018-02-05T17:09:32.458Z,0.20
2018-02-05T17:12:00.027Z,0.20
2018-02-05T17:14:27.580Z,0.00
2018-02-05T17:16:55.159Z,0.00
2018-02-05T17:19:22.725Z,-0.10
2018-02-05T17:21:51.346Z,-0.20
2018-02-05T17:24:18.897Z,-0.20
2018-02-05T17:26:46.704Z,-0.20
2018-02-05T17:31:48.879Z,-0.30
2018-02-05T17:34:16.794Z,-0.30
2018-02-05T17:36:45.290Z,-0.30
2018-02-05T17:39:12.870Z,-0.40
2018-02-05T17:41:40.458Z,-0.30
2018-02-05T17:44:08.031Z,-0.30
2018-02-05T17:46:36.419Z,-0.30
2018-02-05T17:49:04.740Z,-0.40
2018-02-05T17:51:32.314Z,-0.40
2018-02-05T17:53:59.907Z,-0.40
2018-02-05T17:56:28.247Z,-0.60
2018-02-05T17:58:56.118Z,-0.70
2018-02-05T18:01:23.712Z,-0.60
2018-02-05T18:03:51.282Z,-0.70
2018-02-05T18:06:19.649Z,-0.90
2018-02-05T18:08:47.983Z,-0.90
2018-02-05T18:11:15.851Z,-0.90
2018-02-05T18:13:43.420Z,-0.80
2018-02-05T18:16:10.984Z,-0.80
2018-02-05T18:18:38.606Z,-0.80
2018-02-05T18:21:06.187Z,-0.80
2018-02-05T18:23:33.782Z,-0.90
2018-02-05T18:26:02.113Z,-0.80
2018-02-05T18:28:29.702Z,-0.80
2018-02-05T18:30:57.567Z,-0.80
2018-02-05T18:33:25.136Z,-0.90
2018-02-05T18:35:53.482Z,-1.00
2018-02-05T18:38:21.075Z,-1.00
2018-02-05T18:40:48.651Z,-1.00
2018-02-05T18:43:17.313Z,-1.10
2018-02-05T18:45:44.870Z,-1.20
2018-02-05T18:48:12.404Z,-1.30
2018-02-05T18:50:39.996Z,-1.30
2018-02-05T18:53:08.345Z,-1.40
2018-02-05T18:55:36.305Z,-1.50
2018-02-05T18:58:03.882Z,-1.50
2018-02-05T19:00:43.237Z,-1.60
2018-02-05T19:03:10.827Z,-1.60
2018-02-05T19:05:38.392Z,-1.60
2018-02-05T19:08:06.007Z,-1.70
2018-02-05T19:10:34.284Z,-1.70
2018-02-05T19:13:01.998Z,-1.80
2018-02-05T19:15:29.668Z,-1.80
2018-02-05T19:17:57.242Z,-1.80
2018-02-05T19:20:24.876Z,-1.70
2018-02-05T19:22:52.438Z,-1.60
2018-02-05T19:25:20.325Z,-1.50
2018-02-05T19:27:48.483Z,-1.40
2018-02-05T19:30:16.056Z,-1.40
2018-02-05T19:32:43.648Z,-1.40
2018-02-05T19:35:11.248Z,-1.50
2018-02-05T19:37:39.480Z,-1.50
2018-02-05T19:40:07.914Z,-1.60
2018-02-05T19:42:35.656Z,-1.60
2018-02-05T19:45:03.360Z,-1.60
2018-02-05T19:47:30.948Z,-1.60
2018-02-05T19:49:59.598Z,-1.70
2018-02-05T19:52:27.225Z,-1.80
2018-02-05T19:54:54.807Z,-1.70
2018-02-05T19:57:22.408Z,-1.60
2018-02-05T19:59:49.960Z,-1.60
2018-02-05T20:02:18.741Z,-1.80
2018-02-05T20:04:46.628Z,-1.90
2018-02-05T20:07:14.965Z,-1.80
2018-02-05T20:09:43.403Z,-1.80
2018-02-05T20:12:10.977Z,-1.90
2018-02-05T20:14:38.792Z,-1.80
2018-02-05T20:17:07.504Z,-1.90
2018-02-05T20:19:35.828Z,-2.00
2018-02-05T20:22:03.653Z,-2.10
2018-02-05T20:24:31.993Z,-2.00
2018-02-05T20:26:59.566Z,-2.10
2018-02-05T20:29:27.936Z,-2.20
2018-02-05T20:31:55.523Z,-2.20
2018-02-05T20:34:23.126Z,-2.40
2018-02-05T20:36:50.721Z,-2.40
2018-02-05T20:39:19.469Z,-2.40
2018-02-05T20:41:47.054Z,-2.50
2018-02-05T20:44:14.797Z,-2.50
2018-02-05T20:46:42.366Z,-2.50
2018-02-05T20:49:09.928Z,-2.60
2018-02-05T20:51:37.743Z,-2.60
2018-02-05T20:54:05.303Z,-2.80
2018-02-05T20:56:32.862Z,-2.90
2018-02-05T20:59:00.453Z,-2.90
2018-02-05T21:01:28.048Z,-2.80
2018-02-05T21:03:56.412Z,-2.60
2018-02-05T21:06:24.028Z,-2.70
2018-02-05T21:08:51.837Z,-2.40
2018-02-05T21:11:19.401Z,-2.30
2018-02-05T21:13:46.965Z,-2.40
2018-02-05T21:16:16.210Z,-2.30
2018-02-05T21:18:43.791Z,-2.40
2018-02-05T21:21:11.680Z,-2.40
2018-02-05T21:23:39.291Z,-2.50
2018-02-05T21:26:06.952Z,-2.60
2018-02-05T21:28:34.616Z,-2.60
2018-02-05T21:31:02.281Z,-2.40
2018-02-05T21:33:29.865Z,-2.30
2018-02-05T21:35:57.430Z,-2.40
2018-02-05T21:38:25.358Z,-2.60
2018-02-05T21:40:53.019Z,-2.80
2018-02-05T21:43:20.583Z,-2.90
2018-02-05T21:45:48.254Z,-2.90
2018-02-05T21:48:15.811Z,-2.90
2018-02-05T21:50:43.403Z,-2.90
2018-02-05T21:53:12.545Z,-2.90
2018-02-05T21:55:40.185Z,-2.90
2018-02-05T21:58:08.743Z,-2.90
2018-02-05T22:00:36.327Z,-3.00
2018-02-05T22:03:04.679Z,-2.90
2018-02-05T22:05:32.542Z,-2.90
2018-02-05T22:08:00.114Z,-2.90
2018-02-05T22:10:27.848Z,-2.80
2018-02-05T22:12:55.562Z,-2.70
2018-02-05T22:15:23.286Z,-2.70
2018-02-05T22:17:50.893Z,-2.70
2018-02-05T22:20:18.473Z,-2.60
2018-02-05T22:22:46.331Z,-2.60
2018-02-05T22:25:13.939Z,-2.60
2018-02-05T22:27:41.480Z,-2.60
2018-02-05T22:30:09.346Z,-2.70
2018-02-05T22:32:36.922Z,-2.80
2018-02-05T22:35:05.266Z,-2.90
2018-02-05T22:37:33.146Z,-3.00
2018-02-05T22:40:00.708Z,-2.70
2018-02-05T22:42:28.285Z,-2.50
2018-02-05T22:44:56.860Z,-2.50
2018-02-05T22:47:24.465Z,-2.60
2018-02-05T22:49:52.032Z,-2.50
2018-02-05T22:52:19.921Z,-2.50
2018-02-05T22:54:47.487Z,-2.50
2018-02-05T22:57:15.052Z,-2.60
2018-02-05T22:59:43.019Z,-2.60
2018-02-05T23:02:10.580Z,-2.60
2018-02-05T23:04:38.155Z,-2.80
2018-02-05T23:07:06.102Z,-2.90
2018-02-05T23:09:33.669Z,-2.90
2018-02-05T23:12:01.251Z,-3.00
2018-02-05T23:14:29.994Z,-3.10
2018-02-05T23:16:57.606Z,-3.20
2018-02-05T23:19:25.156Z,-3.10
2018-02-05T23:21:53.845Z,-3.30
2018-02-05T23:24:22.214Z,-3.20
2018-02-05T23:26:50.560Z,-3.00
2018-02-05T23:29:18.139Z,-3.10
2018-02-05T23:31:45.701Z,-2.80
2018-02-05T23:34:14.366Z,-2.80
2018-02-05T23:36:42.046Z,-2.80
2018-02-05T23:39:11.150Z,-2.90
2018-02-05T23:41:39.770Z,-2.70
2018-02-05T23:44:07.339Z,-2.80
2018-02-05T23:46:34.910Z,-2.80
2018-02-05T23:49:02.904Z,-3.00
2018-02-05T23:51:30.466Z,-3.10
2018-02-05T23:53:58.052Z,-3.20
2018-02-05T23:56:25.832Z,-3.30
2018-02-05T23:58:53.502Z,-3.30
